El Paso, TX (88556)

2:03 PM MST on January 30, 2015 (GMT -0700)
Shock | Change Station
CLOSE
Current Station
Personal Weather Station
Location: El Paso, TX
Elevation: 3924 ft
Nearby Weather Stations

Elev 3924 ft 31.76 °N, 106.33 °W | Updated 2 minutes ago

Mostly Cloudy
Mostly Cloudy
46.0 °F
Feels Like 41 °F
N
10.4
Wind Variable Wind from East

Today
High -- | Low -- °F
--% Chance of Precip.
Yesterday
High -- | Low -- °F
Precip. -- in
6:59 AM 5:37 PM
Waxing Gibbous, 85% visible
Pressure 30.03 in
Visibility 10.0 miles
Clouds Mostly Cloudy 8000 ft
Windchill 41 °F
Dew Point 40 °F
Humidity 79%
Rainfall 0.15 in
Snow Depth Not available.
UV 2 out of 12
Pollen .20 out of 12
Air Quality Not available.
Flu Activity Not available.
METAR KELP 302051Z 07010KT 10SM -RA BKN080 08/04 A3010 RMK AO2 SLP169 CLDS TPG MTNS SW-NW P0000 60000 T00780039 58036

More Conditions Fewer Conditions

Pressure 30.03 in
Visibility 10.0 miles
Clouds Mostly Cloudy 8000 ft
Windchill 41 °F
Dew Point 40 °F
Humidity 79%
Rainfall 0.15 in
Snow Depth Not available.
UV 2 out of 12
Pollen .20 out of 12
Air Quality Not available.
Flu Activity Not available.
METAR KELP 302051Z 07010KT 10SM -RA BKN080 08/04 A3010 RMK AO2 SLP169 CLDS TPG MTNS SW-NW P0000 60000 T00780039 58036

More Conditions Fewer Conditions

10-Day Weather Forecast

Almanac

Astronomy

Jan. 30, 2015 Rise Set
Actual Time
Civil Twilight
Nautical Twilight
Astronomical Twilight
Moon
Length of Visible Light
Length of Day
Tomorrow will be .
, % of the Moon is Illuminated

Today's Extremes

State Highs State Lows

Community

WunderPhotos

Upload Photos

1,791,894 photos uploaded!

WunderBlogs® & News

Nearby

Air Quality

  Air Quality AQ Index Pollutant
Not available.

Snow Depth

Station Depth Elevation

Earthquake Activity

City Distance Mag. Time & Date
Minimum magnitude displayed is 2.5.

Coastal Water Temperatures

Place Temperature

Nearby Weather Stations